Time;durP1;ratioP1;P1;durP2;ratioP2;P2;SDS_P1;SDS_P2;PMS_P1;PMS_P2;Temp;Humidity;BMP_temperature;BMP_pressure;BME280_temperature;BME280_humidity;BME280_pressure;Samples;Min_cycle;Max_cycle;Signal;HPM_P1;HPM_P2
2021/07/10 00:01:26;;;;;;;24.48;21.48;;;;;;;;;;5041244;28;20365;-74
2021/07/10 00:03:52;;;;;;;31.10;21.05;;;;;;;;;;5041521;28;20027;-74
2021/07/10 00:06:18;;;;;;;25.80;21.90;;;;;;;;;;5055937;28;20032;-74
2021/07/10 00:08:44;;;;;;;30.15;22.90;;;;;;;;;;5056449;28;20024;-75
2021/07/10 00:11:17;;;;;;;28.35;21.67;;;;;;;;;;5056130;28;20048;-75
2021/07/10 00:13:43;;;;;;;29.02;21.95;;;;;;;;;;5056490;28;20118;-74
2021/07/10 00:16:09;;;;;;;28.20;22.10;;;;;;;;;;5048870;28;20446;-75
2021/07/10 00:18:53;;;;;;;26.50;21.88;;;;;;;;;;5036359;28;20025;-75
2021/07/10 00:21:19;;;;;;;25.15;20.88;;;;;;;;;;5036273;28;20037;-75
2021/07/10 00:23:44;;;;;;;27.55;22.05;;;;;;;;;;5037484;28;20025;-74
2021/07/10 00:26:44;;;;;;;27.67;20.50;;;;;;;;;;5036946;28;20112;-74
2021/07/10 00:29:10;;;;;;;25.58;20.02;;;;;;;;;;5054856;28;20040;-74
2021/07/10 00:31:35;;;;;;;28.48;20.88;;;;;;;;;;5056189;28;20021;-75
2021/07/10 00:34:15;;;;;;;25.85;21.27;;;;;;;;;;5050457;28;20032;-75
2021/07/10 00:36:40;;;;;;;28.10;20.80;;;;;;;;;;5046867;28;20108;-74
2021/07/10 00:39:06;;;;;;;24.52;19.30;;;;;;;;;;5053279;28;20124;-74
2021/07/10 00:41:35;;;;;;;29.13;21.15;;;;;;;;;;5035764;28;20021;-74
2021/07/10 00:44:01;;;;;;;25.10;20.92;;;;;;;;;;5037229;28;20484;-74
2021/07/10 00:46:27;;;;;;;25.90;19.90;;;;;;;;;;5055828;28;20052;-74
2021/07/10 00:48:59;;;;;;;21.45;19.17;;;;;;;;;;5037348;28;20040;-73
2021/07/10 00:51:25;;;;;;;22.73;19.43;;;;;;;;;;5035736;28;20032;-73
2021/07/10 00:53:50;;;;;;;26.48;21.13;;;;;;;;;;5035607;28;20254;-73
2021/07/10 00:56:22;;;;;;;28.63;20.90;;;;;;;;;;5044182;28;20416;-74
2021/07/10 00:58:48;;;;;;;28.92;19.58;;;;;;;;;;5055573;28;20033;-74
2021/07/10 01:01:14;;;;;;;27.70;19.48;;;;;;;;;;5055643;28;20025;-74
2021/07/10 01:04:03;;;;;;;28.25;19.55;;;;;;;;;;5043354;28;20420;-74
2021/07/10 01:06:29;;;;;;;27.05;19.33;;;;;;;;;;5035609;28;20369;-74
2021/07/10 01:09:02;;;;;;;27.42;20.15;;;;;;;;;;5035473;28;20021;-74
2021/07/10 01:11:28;;;;;;;31.85;20.58;;;;;;;;;;5041685;28;20049;-75
2021/07/10 01:13:53;;;;;;;27.15;19.38;;;;;;;;;;5055396;28;20037;-77
2021/07/10 01:16:19;;;;;;;27.13;20.42;;;;;;;;;;5043020;28;20025;-78
2021/07/10 01:19:10;;;;;;;31.17;20.60;;;;;;;;;;5062416;28;20100;-79
2021/07/10 01:21:36;;;;;;;32.10;21.48;;;;;;;;;;5055295;28;20067;-76
2021/07/10 01:24:01;;;;;;;28.85;21.00;;;;;;;;;;5058138;28;20410;-78
2021/07/10 01:26:42;;;;;;;32.35;21.27;;;;;;;;;;5074726;28;20429;-79
2021/07/10 01:29:08;;;;;;;31.98;20.60;;;;;;;;;;5073815;28;20028;-77
2021/07/10 01:31:34;;;;;;;32.13;20.77;;;;;;;;;;5074868;28;20031;-76
2021/07/10 01:34:15;;;;;;;30.02;21.38;;;;;;;;;;5064671;28;20031;-76
2021/07/10 01:36:42;;;;;;;27.33;19.00;;;;;;;;;;5074775;28;20028;-78
2021/07/10 01:39:07;;;;;;;34.42;20.30;;;;;;;;;;5074640;28;20074;-79
2021/07/10 01:42:02;;;;;;;33.70;20.77;;;;;;;;;;5074827;28;20107;-79
2021/07/10 01:44:27;;;;;;;32.15;20.90;;;;;;;;;;5074715;28;20024;-80
2021/07/10 01:46:53;;;;;;;27.50;19.95;;;;;;;;;;5061767;28;20021;-77
2021/07/10 01:49:18;;;;;;;31.67;20.67;;;;;;;;;;5072353;28;20025;-78
2021/07/10 01:51:44;;;;;;;30.02;20.15;;;;;;;;;;5074722;28;20020;-81
2021/07/10 01:54:10;;;;;;;25.23;19.13;;;;;;;;;;5069949;28;20521;-77
2021/07/10 01:56:38;;;;;;;27.23;19.40;;;;;;;;;;5054361;28;20027;-77
2021/07/10 01:59:04;;;;;;;38.08;20.42;;;;;;;;;;5054302;28;20484;-77
2021/07/10 02:01:32;;;;;;;27.33;21.30;;;;;;;;;;5054413;28;20068;-77
2021/07/10 02:04:00;;;;;;;35.47;21.83;;;;;;;;;;5058725;28;20017;-77
2021/07/10 02:06:26;;;;;;;33.28;21.77;;;;;;;;;;5074159;28;20033;-77
2021/07/10 02:08:52;;;;;;;30.80;20.88;;;;;;;;;;5074067;28;20031;-77
2021/07/10 02:11:18;;;;;;;33.35;20.58;;;;;;;;;;5052290;28;20092;-78
2021/07/10 02:13:44;;;;;;;35.55;20.50;;;;;;;;;;5033818;28;20021;-77
2021/07/10 02:16:11;;;;;;;29.63;19.70;;;;;;;;;;5033814;28;20025;-77
2021/07/10 02:18:37;;;;;;;31.83;21.05;;;;;;;;;;5033921;28;20017;-78
2021/07/10 02:21:03;;;;;;;27.95;20.00;;;;;;;;;;5053509;28;20017;-77
2021/07/10 02:23:29;;;;;;;32.90;19.02;;;;;;;;;;5052712;28;20023;-77
2021/07/10 02:25:54;;;;;;;27.58;18.85;;;;;;;;;;5038972;28;20055;-77
2021/07/10 02:28:20;;;;;;;29.50;18.65;;;;;;;;;;5053450;28;20051;-77
2021/07/10 02:30:45;;;;;;;31.83;19.80;;;;;;;;;;5053949;28;20032;-78
2021/07/10 02:33:21;;;;;;;33.15;18.70;;;;;;;;;;5049542;28;20530;-77
2021/07/10 02:35:48;;;;;;;27.85;17.65;;;;;;;;;;5037996;28;20014;-78
2021/07/10 02:38:13;;;;;;;23.77;16.63;;;;;;;;;;5033631;28;20021;-77
2021/07/10 02:40:55;;;;;;;25.83;17.20;;;;;;;;;;5036923;28;20070;-76
2021/07/10 02:43:21;;;;;;;24.20;15.93;;;;;;;;;;5054065;28;20032;-80
2021/07/10 02:45:46;;;;;;;23.85;16.13;;;;;;;;;;5053672;28;20414;-76
2021/07/10 02:48:26;;;;;;;22.08;15.18;;;;;;;;;;5027020;28;20377;-78
2021/07/10 02:50:51;;;;;;;20.58;15.63;;;;;;;;;;5033620;28;20068;-79
2021/07/10 02:53:17;;;;;;;25.27;15.40;;;;;;;;;;5033760;28;20049;-79
2021/07/10 02:55:56;;;;;;;21.63;14.27;;;;;;;;;;5051830;28;20021;-76
2021/07/10 02:58:22;;;;;;;24.30;13.98;;;;;;;;;;5052775;28;20040;-75
2021/07/10 03:00:48;;;;;;;18.23;13.38;;;;;;;;;;5034438;28;20034;-74
2021/07/10 03:03:14;;;;;;;19.50;12.60;;;;;;;;;;5042147;28;20085;-73
2021/07/10 03:05:39;;;;;;;23.63;12.90;;;;;;;;;;5037081;28;20030;-74
2021/07/10 03:08:42;;;;;;;19.63;12.30;;;;;;;;;;5053250;28;20373;-74
2021/07/10 03:14:07;;;;;;;21.52;10.65;;;;;;;;;;5053642;28;20543;-74
2021/07/10 03:16:37;;;;;;;16.58;9.88;;;;;;;;;;5044343;28;20025;-75
2021/07/10 03:19:03;;;;;;;19.77;10.20;;;;;;;;;;5033302;28;20457;-74
2021/07/10 03:21:31;;;;;;;21.67;9.50;;;;;;;;;;5040307;28;20027;-74
2021/07/10 03:23:57;;;;;;;16.52;9.07;;;;;;;;;;5046186;28;20030;-75
2021/07/10 03:26:22;;;;;;;14.05;8.63;;;;;;;;;;5036490;28;20028;-74
2021/07/10 03:28:54;;;;;;;13.73;8.27;;;;;;;;;;5053195;28;20419;-74
2021/07/10 03:31:19;;;;;;;14.98;7.82;;;;;;;;;;5053086;28;20029;-74
2021/07/10 03:33:45;;;;;;;14.13;7.65;;;;;;;;;;5053386;28;20047;-75
2021/07/10 03:36:13;;;;;;;13.18;7.47;;;;;;;;;;5048862;28;20021;-74
2021/07/10 03:38:41;;;;;;;14.25;7.10;;;;;;;;;;5052990;28;20098;-75
2021/07/10 03:41:07;;;;;;;11.27;6.53;;;;;;;;;;5038037;28;20067;-75
2021/07/10 03:43:33;;;;;;;11.43;6.22;;;;;;;;;;5038798;28;20028;-75
2021/07/10 03:46:02;;;;;;;13.20;6.07;;;;;;;;;;5056832;28;20021;-75
2021/07/10 03:48:28;;;;;;;9.65;6.25;;;;;;;;;;5056326;28;20025;-75
2021/07/10 03:50:54;;;;;;;9.68;5.97;;;;;;;;;;5055615;28;20032;-75
2021/07/10 03:53:19;;;;;;;15.02;6.03;;;;;;;;;;5037347;28;20029;-75
2021/07/10 03:55:45;;;;;;;10.73;5.50;;;;;;;;;;5056653;28;20104;-75
2021/07/10 03:58:32;;;;;;;11.05;5.80;;;;;;;;;;5042414;28;20109;-75
2021/07/10 04:00:58;;;;;;;11.57;5.47;;;;;;;;;;5036546;28;20025;-75
2021/07/10 04:03:23;;;;;;;10.43;5.53;;;;;;;;;;5036651;28;20586;-75
2021/07/10 04:05:58;;;;;;;16.17;6.03;;;;;;;;;;5038255;28;20363;-74
2021/07/10 04:08:23;;;;;;;8.95;5.72;;;;;;;;;;5056623;28;20025;-75
2021/07/10 04:10:49;;;;;;;11.05;5.60;;;;;;;;;;5056348;28;20025;-75
2021/07/10 04:13:53;;;;;;;13.48;5.72;;;;;;;;;;5041942;28;20069;-76
2021/07/10 04:16:18;;;;;;;12.70;5.70;;;;;;;;;;5044645;28;20095;-76
2021/07/10 04:18:44;;;;;;;11.55;5.72;;;;;;;;;;5037708;28;20025;-75
2021/07/10 04:21:10;;;;;;;9.50;5.43;;;;;;;;;;5052417;28;20051;-75
2021/07/10 04:23:36;;;;;;;13.75;5.82;;;;;;;;;;5036395;28;20025;-75
2021/07/10 04:26:02;;;;;;;10.90;5.60;;;;;;;;;;5036105;28;20480;-73
2021/07/10 04:28:35;;;;;;;11.57;6.10;;;;;;;;;;5018351;28;20086;-74
2021/07/10 04:31:01;;;;;;;13.02;5.53;;;;;;;;;;5036203;28;20025;-74
2021/07/10 04:33:27;;;;;;;11.57;5.53;;;;;;;;;;5036256;28;20025;-75
2021/07/10 04:35:53;;;;;;;13.73;6.07;;;;;;;;;;5036174;28;20068;-75
2021/07/10 04:38:20;;;;;;;9.95;5.07;;;;;;;;;;5047590;28;20036;-75
2021/07/10 04:40:46;;;;;;;11.48;5.38;;;;;;;;;;5055663;28;20365;-75
2021/07/10 04:43:19;;;;;;;13.00;5.78;;;;;;;;;;5052131;28;20036;-74
2021/07/10 04:45:45;;;;;;;11.60;5.10;;;;;;;;;;5035860;28;20021;-76
2021/07/10 04:48:10;;;;;;;14.95;5.53;;;;;;;;;;5035543;28;20037;-75
2021/07/10 04:50:55;;;;;;;9.27;4.88;;;;;;;;;;5051935;28;20017;-74
2021/07/10 04:53:21;;;;;;;10.35;5.38;;;;;;;;;;5035858;28;20112;-75
2021/07/10 04:55:46;;;;;;;8.82;4.97;;;;;;;;;;5035930;28;20151;-76
2021/07/10 04:58:36;;;;;;;12.65;5.80;;;;;;;;;;5035630;28;20029;-75
2021/07/10 05:01:01;;;;;;;11.02;5.22;;;;;;;;;;5029192;28;20110;-74
2021/07/10 05:03:26;;;;;;;12.32;5.13;;;;;;;;;;5037351;28;20129;-74
2021/07/10 05:06:03;;;;;;;12.27;5.65;;;;;;;;;;5055321;28;20407;-75
2021/07/10 05:08:29;;;;;;;10.85;5.35;;;;;;;;;;5055178;28;20465;-75
2021/07/10 05:10:54;;;;;;;16.73;5.32;;;;;;;;;;5055575;28;20040;-74
2021/07/10 05:13:31;;;;;;;8.82;5.00;;;;;;;;;;5055194;28;20476;-74
2021/07/10 05:15:56;;;;;;;10.60;4.93;;;;;;;;;;5055290;28;20033;-74
2021/07/10 05:18:22;;;;;;;16.25;5.50;;;;;;;;;;5054003;28;20021;-74
2021/07/10 05:21:11;;;;;;;9.45;5.28;;;;;;;;;;5033878;28;20532;-75
2021/07/10 05:23:37;;;;;;;11.52;4.75;;;;;;;;;;5055167;28;20100;-74
2021/07/10 05:26:02;;;;;;;8.85;4.80;;;;;;;;;;5054941;28;20104;-75
2021/07/10 05:28:56;;;;;;;8.95;4.53;;;;;;;;;;5051082;28;20025;-76
2021/07/10 05:31:22;;;;;;;10.27;4.45;;;;;;;;;;5034950;28;20079;-75
2021/07/10 05:33:47;;;;;;;9.38;4.88;;;;;;;;;;5034933;28;20424;-76
2021/07/10 05:36:12;;;;;;;9.10;4.75;;;;;;;;;;5038927;28;20419;-75
2021/07/10 05:38:38;;;;;;;6.93;3.90;;;;;;;;;;5054735;28;20059;-75
2021/07/10 05:41:04;;;;;;;6.97;3.45;;;;;;;;;;5044343;28;20025;-75
2021/07/10 05:43:32;;;;;;;10.63;4.43;;;;;;;;;;5036332;28;20059;-75
2021/07/10 05:45:58;;;;;;;9.15;4.13;;;;;;;;;;5054556;28;20477;-75
2021/07/10 05:48:23;;;;;;;9.27;4.22;;;;;;;;;;5053545;28;20032;-76
2021/07/10 05:51:28;;;;;;;9.05;3.90;;;;;;;;;;5035389;28;20063;-75
2021/07/10 05:53:53;;;;;;;5.60;4.00;;;;;;;;;;5054470;28;20013;-75
2021/07/10 05:56:19;;;;;;;8.45;4.30;;;;;;;;;;5054197;28;20354;-76
2021/07/10 05:58:45;;;;;;;7.10;4.20;;;;;;;;;;5051537;28;20032;-75
2021/07/10 06:01:11;;;;;;;8.73;3.88;;;;;;;;;;5034512;28;20092;-75
2021/07/10 06:03:36;;;;;;;9.52;4.05;;;;;;;;;;5034841;28;20086;-75
2021/07/10 06:09:23;;;;;;;11.02;3.80;;;;;;;;;;5054593;28;20031;-75
2021/07/10 06:12:05;;;;;;;6.65;3.97;;;;;;;;;;5054011;28;20032;-77
2021/07/10 06:14:31;;;;;;;9.02;3.53;;;;;;;;;;5054246;28;20025;-75
2021/07/10 06:17:01;;;;;;;9.45;4.43;;;;;;;;;;5051330;28;20024;-75
2021/07/10 06:19:29;;;;;;;7.22;4.30;;;;;;;;;;5046385;28;20022;-75
2021/07/10 06:21:56;;;;;;;9.90;4.00;;;;;;;;;;5040845;28;20067;-73
2021/07/10 06:24:23;;;;;;;8.52;4.10;;;;;;;;;;5027746;28;20098;-76
2021/07/10 06:26:48;;;;;;;7.78;4.25;;;;;;;;;;5034063;28;20140;-75
2021/07/10 06:29:16;;;;;;;7.90;4.18;;;;;;;;;;5039872;28;20463;-76
2021/07/10 06:31:41;;;;;;;11.60;4.47;;;;;;;;;;5053966;28;20365;-74
2021/07/10 06:34:09;;;;;;;10.70;4.53;;;;;;;;;;5036251;28;20078;-74
2021/07/10 06:36:36;;;;;;;8.63;4.45;;;;;;;;;;5047389;28;20092;-74
2021/07/10 06:39:03;;;;;;;8.93;3.90;;;;;;;;;;5047688;28;20075;-75
2021/07/10 06:42:18;;;;;;;9.80;4.20;;;;;;;;;;5053655;28;20059;-75
2021/07/10 06:44:44;;;;;;;9.00;4.20;;;;;;;;;;5053904;28;20461;-74
2021/07/10 06:47:09;;;;;;;9.70;3.90;;;;;;;;;;5052106;28;20028;-76
2021/07/10 06:49:48;;;;;;;7.15;3.80;;;;;;;;;;5052616;28;20016;-77
2021/07/10 06:52:14;;;;;;;8.80;4.57;;;;;;;;;;5053672;28;20031;-78
2021/07/10 06:54:39;;;;;;;10.32;4.30;;;;;;;;;;5037576;28;20437;-76
2021/07/10 06:57:05;;;;;;;8.27;3.90;;;;;;;;;;5049102;28;20516;-76
2021/07/10 06:59:31;;;;;;;7.60;4.40;;;;;;;;;;5049069;28;20095;-77
2021/07/10 07:02:05;;;;;;;9.15;4.38;;;;;;;;;;5053373;28;20064;-77
2021/07/10 07:04:30;;;;;;;8.82;4.50;;;;;;;;;;5053270;28;20040;-77
2021/07/10 07:06:56;;;;;;;9.43;4.78;;;;;;;;;;5053456;28;20029;-78
2021/07/10 07:09:24;;;;;;;6.38;3.90;;;;;;;;;;5053206;28;20021;-77
2021/07/10 07:11:51;;;;;;;8.23;4.07;;;;;;;;;;5034584;28;20545;-77
2021/07/10 07:14:18;;;;;;;9.25;4.90;;;;;;;;;;5046067;28;20032;-77
2021/07/10 07:16:43;;;;;;;8.32;4.38;;;;;;;;;;5052664;28;20033;-77
2021/07/10 07:19:10;;;;;;;6.35;3.97;;;;;;;;;;5037180;28;20021;-77
2021/07/10 07:21:36;;;;;;;6.78;4.47;;;;;;;;;;5037172;28;20030;-76
2021/07/10 07:24:01;;;;;;;8.60;4.20;;;;;;;;;;5051506;28;20032;-75
2021/07/10 07:26:34;;;;;;;5.93;4.13;;;;;;;;;;5039588;28;20067;-76
2021/07/10 07:28:59;;;;;;;8.13;4.57;;;;;;;;;;5037451;28;20385;-77
2021/07/10 07:31:25;;;;;;;8.38;4.80;;;;;;;;;;5052651;28;20074;-77
2021/07/10 07:33:59;;;;;;;7.97;4.53;;;;;;;;;;5057096;28;20032;-77
2021/07/10 07:36:24;;;;;;;13.50;5.05;;;;;;;;;;5056948;28;20028;-77
2021/07/10 07:38:50;;;;;;;8.35;4.88;;;;;;;;;;5056030;28;20020;-78
2021/07/10 07:41:16;;;;;;;10.48;5.05;;;;;;;;;;5036612;28;20450;-80
2021/07/10 07:43:41;;;;;;;7.47;5.10;;;;;;;;;;5037087;28;20044;-78
2021/07/10 07:46:06;;;;;;;10.13;4.95;;;;;;;;;;5040768;28;20028;-78
2021/07/10 07:48:38;;;;;;;9.32;5.60;;;;;;;;;;5036922;28;20075;-79
2021/07/10 07:51:03;;;;;;;8.90;5.28;;;;;;;;;;5051810;28;20025;-82
2021/07/10 07:53:29;;;;;;;12.25;5.53;;;;;;;;;;5050800;28;20036;-81
2021/07/10 07:56:10;;;;;;;8.80;5.60;;;;;;;;;;5056929;28;20017;-78
2021/07/10 07:58:36;;;;;;;11.23;5.40;;;;;;;;;;5056539;28;20056;-80
2021/07/10 08:01:21;;;;;;;8.55;5.50;;;;;;;;;;5046118;28;20473;-77
2021/07/10 08:03:47;;;;;;;7.45;4.75;;;;;;;;;;5044193;28;20031;-77
2021/07/10 08:06:28;;;;;;;7.30;5.45;;;;;;;;;;5054810;28;20516;-78
2021/07/10 08:08:53;;;;;;;7.70;5.03;;;;;;;;;;5045556;28;20033;-74
2021/07/10 08:11:19;;;;;;;7.75;5.50;;;;;;;;;;5045466;28;20048;-77
2021/07/10 08:13:44;;;;;;;10.82;5.57;;;;;;;;;;5063239;28;20035;-77
2021/07/10 08:16:13;;;;;;;8.07;5.13;;;;;;;;;;5063353;28;20078;-76
2021/07/10 08:18:38;;;;;;;7.35;5.32;;;;;;;;;;5074912;28;20024;-76
2021/07/10 08:21:05;;;;;;;7.60;5.20;;;;;;;;;;5068185;28;20035;-76
2021/07/10 08:23:30;;;;;;;10.27;5.63;;;;;;;;;;5060987;28;20100;-76
2021/07/10 08:25:56;;;;;;;7.22;4.60;;;;;;;;;;5065922;28;20538;-77
2021/07/10 08:28:22;;;;;;;8.05;5.10;;;;;;;;;;5051342;28;20032;-76
2021/07/10 08:30:47;;;;;;;12.35;6.40;;;;;;;;;;5066578;28;20399;-75
2021/07/10 08:33:13;;;;;;;8.95;5.88;;;;;;;;;;5056688;28;20036;-78
2021/07/10 08:35:39;;;;;;;9.43;6.20;;;;;;;;;;5055720;28;20403;-75
2021/07/10 08:38:04;;;;;;;6.82;5.80;;;;;;;;;;5060710;28;20384;-77
2021/07/10 08:40:30;;;;;;;10.50;6.20;;;;;;;;;;5062874;28;20052;-75
2021/07/10 08:42:55;;;;;;;8.20;5.88;;;;;;;;;;5064144;28;20021;-77
2021/07/10 08:45:21;;;;;;;9.75;6.55;;;;;;;;;;5062202;28;20029;-77
2021/07/10 08:47:47;;;;;;;7.85;6.72;;;;;;;;;;5059964;28;20380;-77
2021/07/10 08:50:16;;;;;;;9.65;6.80;;;;;;;;;;5061747;28;20376;-77
2021/07/10 08:52:43;;;;;;;10.07;7.40;;;;;;;;;;5055691;28;20381;-77
2021/07/10 08:55:11;;;;;;;8.82;7.00;;;;;;;;;;5054200;28;20029;-77
2021/07/10 08:57:37;;;;;;;12.38;6.90;;;;;;;;;;5062232;28;20560;-77
2021/07/10 09:00:09;;;;;;;9.40;6.63;;;;;;;;;;5063339;28;20021;-75
2021/07/10 09:02:35;;;;;;;9.27;6.50;;;;;;;;;;5057797;28;20021;-77
2021/07/10 09:05:04;;;;;;;9.45;6.22;;;;;;;;;;5063553;28;20024;-77
2021/07/10 09:07:31;;;;;;;9.70;6.63;;;;;;;;;;5067522;28;20106;-80
2021/07/10 09:09:57;;;;;;;8.95;6.30;;;;;;;;;;5063509;28;20036;-79
2021/07/10 09:12:30;;;;;;;10.43;6.63;;;;;;;;;;5050469;28;20033;-79
2021/07/10 09:15:15;;;;;;;;;;;;;;;;;;5035125;28;20052;-78
2021/07/10 09:17:47;;;;;;;8.15;6.57;;;;;;;;;;5045113;28;19916;-79
2021/07/10 09:20:20;;;;;;;7.97;6.93;;;;;;;;;;5048853;28;20417;-77
2021/07/10 09:22:46;;;;;;;9.80;6.68;;;;;;;;;;5046247;28;20422;-78
2021/07/10 09:25:24;;;;;;;11.35;6.57;;;;;;;;;;5033817;28;20053;-77
2021/07/10 09:27:51;;;;;;;8.52;6.60;;;;;;;;;;5042389;28;20481;-79
2021/07/10 09:30:16;;;;;;;7.70;6.70;;;;;;;;;;5034322;28;20021;-79
2021/07/10 09:32:42;;;;;;;9.98;6.30;;;;;;;;;;5051221;28;20029;-77
2021/07/10 09:35:10;;;;;;;10.45;6.97;;;;;;;;;;5052409;28;20025;-80
2021/07/10 09:37:38;;;;;;;7.68;6.18;;;;;;;;;;5040236;28;20119;-78
2021/07/10 09:40:04;;;;;;;9.35;6.95;;;;;;;;;;5052734;28;20419;-77
2021/07/10 09:42:42;;;;;;;9.48;6.45;;;;;;;;;;5047915;28;20104;-76
2021/07/10 09:45:15;;;;;;;8.98;7.45;;;;;;;;;;5042800;28;20500;-78
2021/07/10 09:47:42;;;;;;;10.70;7.10;;;;;;;;;;5024637;28;20033;-78
2021/07/10 09:50:16;;;;;;;9.68;6.95;;;;;;;;;;5045411;28;20028;-78
2021/07/10 09:52:42;;;;;;;10.73;7.18;;;;;;;;;;5048541;28;20040;-78
2021/07/10 09:55:13;;;;;;;9.40;7.35;;;;;;;;;;5047975;28;20028;-77
2021/07/10 09:57:41;;;;;;;10.20;7.55;;;;;;;;;;5054076;28;20032;-79
2021/07/10 10:00:09;;;;;;;10.25;7.68;;;;;;;;;;5053922;28;20361;-79
2021/07/10 10:02:57;;;;;;;11.55;7.75;;;;;;;;;;5042976;28;20369;-78
2021/07/10 10:05:41;;;;;;;12.02;7.70;;;;;;;;;;5037173;28;20065;-74
2021/07/10 10:08:06;;;;;;;9.27;7.82;;;;;;;;;;5017224;28;20037;-75
2021/07/10 10:10:40;;;;;;;10.02;7.90;;;;;;;;;;5048131;28;20025;-75
2021/07/10 10:13:07;;;;;;;10.73;8.15;;;;;;;;;;5049364;28;20032;-76
2021/07/10 10:15:40;;;;;;;9.23;8.20;;;;;;;;;;5038578;28;20025;-74
2021/07/10 10:18:06;;;;;;;12.07;7.95;;;;;;;;;;5043745;28;20101;-74
2021/07/10 10:20:32;;;;;;;11.82;7.38;;;;;;;;;;5037052;28;20036;-74
2021/07/10 10:23:03;;;;;;;12.95;7.85;;;;;;;;;;5051799;28;20373;-73
2021/07/10 10:25:29;;;;;;;22.95;9.98;;;;;;;;;;5037872;28;20025;-73
2021/07/10 10:27:55;;;;;;;10.90;7.53;;;;;;;;;;5035919;28;20037;-73
2021/07/10 10:30:22;;;;;;;10.63;6.65;;;;;;;;;;5031669;28;20037;-80
2021/07/10 10:32:49;;;;;;;10.63;6.28;;;;;;;;;;5041130;28;20036;-79
2021/07/10 10:35:16;;;;;;;12.02;9.70;;;;;;;;;;5049692;28;20357;-80
2021/07/10 10:37:42;;;;;;;16.13;13.80;;;;;;;;;;5047928;28;20108;-80
2021/07/10 10:40:22;;;;;;;24.30;19.48;;;;;;;;;;5031621;28;20033;-81
2021/07/10 10:42:56;;;;;;;17.67;14.05;;;;;;;;;;5030940;28;20303;-82
2021/07/10 10:45:29;;;;;;;9.48;6.43;;;;;;;;;;5031099;28;20069;-81
2021/07/10 10:47:55;;;;;;;;;;;;;;;;;;5031795;28;20032;-82
2021/07/10 10:50:24;;;;;;;7.05;5.75;;;;;;;;;;5033479;28;19912;-81
2021/07/10 10:52:52;;;;;;;16.45;7.63;;;;;;;;;;5050784;28;20028;-79
2021/07/10 10:55:33;;;;;;;9.02;6.80;;;;;;;;;;5051853;28;20021;-81
2021/07/10 10:58:31;;;;;;;98.53;26.92;;;;;;;;;;5048209;28;20534;-80
2021/07/10 11:01:08;;;;;;;13.90;7.00;;;;;;;;;;5032202;28;20021;-80
2021/07/10 11:03:40;;;;;;;8.23;6.15;;;;;;;;;;5051847;28;20043;-80
2021/07/10 11:06:06;;;;;;;8.05;6.53;;;;;;;;;;5050451;28;20112;-80
2021/07/10 11:08:34;;;;;;;7.70;6.35;;;;;;;;;;5051172;28;20061;-78
2021/07/10 11:11:00;;;;;;;11.90;6.40;;;;;;;;;;5051033;28;20091;-81
2021/07/10 11:13:31;;;;;;;18.00;8.07;;;;;;;;;;5069932;28;20044;-82
2021/07/10 11:16:11;;;;;;;29.08;9.38;;;;;;;;;;5065660;28;20017;-82
2021/07/10 11:18:55;;;;;;;14.23;6.90;;;;;;;;;;5051595;28;20031;-79
2021/07/10 11:21:37;;;;;;;17.13;7.90;;;;;;;;;;5049151;28;20068;-78
2021/07/10 11:24:26;;;;;;;13.70;7.70;;;;;;;;;;5049557;28;20075;-78
2021/07/10 11:26:56;;;;;;;9.93;6.15;;;;;;;;;;5039924;28;20041;-81
2021/07/10 11:29:39;;;;;;;9.20;5.57;;;;;;;;;;5065601;28;20036;-79
2021/07/10 11:32:52;;;;;;;6.80;5.97;;;;;;;;;;5064484;28;20419;-80
2021/07/10 11:35:34;;;;;;;7.35;5.78;;;;;;;;;;5051214;28;20033;-83
2021/07/10 11:37:59;;;;;;;7.15;5.68;;;;;;;;;;5054120;28;20028;-81
2021/07/10 11:40:35;;;;;;;9.40;5.70;;;;;;;;;;5070644;28;20035;-79
2021/07/10 11:43:10;;;;;;;6.60;5.72;;;;;;;;;;5070694;28;20021;-81
2021/07/10 11:45:45;;;;;;;9.43;6.20;;;;;;;;;;5067541;28;20039;-79
2021/07/10 11:48:19;;;;;;;10.70;6.07;;;;;;;;;;5069926;28;20049;-78
2021/07/10 11:50:56;;;;;;;9.50;6.30;;;;;;;;;;5070445;28;20016;-82
2021/07/10 11:53:22;;;;;;;8.85;6.30;;;;;;;;;;5051506;28;20445;-79
2021/07/10 11:55:48;;;;;;;10.90;5.90;;;;;;;;;;5051121;28;20096;-80
2021/07/10 11:58:19;;;;;;;9.57;6.30;;;;;;;;;;5052933;28;20120;-80
2021/07/10 12:00:46;;;;;;;8.13;6.05;;;;;;;;;;5071305;28;20025;-77
2021/07/10 12:03:23;;;;;;;7.45;5.65;;;;;;;;;;5073926;28;20107;-77
2021/07/10 12:05:50;;;;;;;7.88;5.55;;;;;;;;;;5075697;28;20020;-79
2021/07/10 12:08:18;;;;;;;6.82;6.03;;;;;;;;;;5075573;28;20025;-78
2021/07/10 12:10:44;;;;;;;13.32;6.00;;;;;;;;;;5075307;28;20130;-78
2021/07/10 12:13:23;;;;;;;8.77;5.30;;;;;;;;;;5053070;28;20037;-74
2021/07/10 12:16:17;;;;;;;7.97;5.45;;;;;;;;;;5031876;28;20499;-77
2021/07/10 12:18:51;;;;;;;7.97;5.28;;;;;;;;;;5045230;28;20450;-77
2021/07/10 12:21:17;;;;;;;6.53;4.88;;;;;;;;;;5035780;28;20109;-74
2021/07/10 12:23:46;;;;;;;7.20;4.93;;;;;;;;;;5035683;28;20090;-75
2021/07/10 12:26:17;;;;;;;6.93;5.05;;;;;;;;;;5036743;28;20029;-73
2021/07/10 12:28:54;;;;;;;7.78;4.70;;;;;;;;;;5050830;28;20453;-74
2021/07/10 12:31:23;;;;;;;7.82;4.95;;;;;;;;;;5037614;28;20152;-74
2021/07/10 12:34:00;;;;;;;8.30;5.28;;;;;;;;;;5039173;28;20084;-74
2021/07/10 12:36:46;;;;;;;9.57;4.85;;;;;;;;;;5052402;28;20025;-76
2021/07/10 12:39:13;;;;;;;8.80;4.97;;;;;;;;;;5052653;28;20070;-79
2021/07/10 12:41:43;;;;;;;7.45;5.20;;;;;;;;;;5056458;28;20032;-73
2021/07/10 12:44:30;;;;;;;17.73;7.05;;;;;;;;;;5044879;28;20377;-75
2021/07/10 12:46:55;;;;;;;7.07;4.93;;;;;;;;;;5026246;28;20091;-74
2021/07/10 12:49:47;;;;;;;7.30;5.25;;;;;;;;;;5041366;28;20029;-74
2021/07/10 12:52:33;;;;;;;7.80;5.40;;;;;;;;;;5049620;28;20055;-74
2021/07/10 12:55:11;;;;;;;7.25;5.70;;;;;;;;;;5036920;28;20067;-73
2021/07/10 12:57:53;;;;;;;8.50;5.65;;;;;;;;;;5033210;28;20072;-76
2021/07/10 13:00:33;;;;;;;8.85;5.70;;;;;;;;;;5043874;28;20024;-74
2021/07/10 13:03:03;;;;;;;9.90;6.55;;;;;;;;;;5037453;28;20108;-76
2021/07/10 13:05:47;;;;;;;9.00;6.70;;;;;;;;;;5036511;28;20025;-77
2021/07/10 13:08:16;;;;;;;9.23;7.50;;;;;;;;;;5037585;28;20029;-74
2021/07/10 13:10:45;;;;;;;9.13;7.47;;;;;;;;;;5040566;28;20041;-75
2021/07/10 13:13:13;;;;;;;12.43;7.53;;;;;;;;;;5046495;28;20420;-76
2021/07/10 13:15:47;;;;;;;8.82;7.60;;;;;;;;;;5059200;28;20533;-74
2021/07/10 13:18:17;;;;;;;11.77;7.18;;;;;;;;;;5057084;28;20472;-74
2021/07/10 13:21:09;;;;;;;9.95;7.65;;;;;;;;;;5071370;28;20039;-74
2021/07/10 13:23:49;;;;;;;10.27;7.38;;;;;;;;;;5072735;28;20016;-75
2021/07/10 13:26:33;;;;;;;10.05;7.50;;;;;;;;;;5067097;28;20059;-76
2021/07/10 13:29:18;;;;;;;10.13;7.53;;;;;;;;;;5066791;28;20135;-74
2021/07/10 13:31:59;;;;;;;8.70;6.38;;;;;;;;;;5072898;28;20459;-73
2021/07/10 13:34:28;;;;;;;10.32;5.72;;;;;;;;;;5073295;28;20056;-73
2021/07/10 13:36:59;;;;;;;8.65;5.30;;;;;;;;;;5071283;28;20530;-75
2021/07/10 13:39:33;;;;;;;11.35;6.43;;;;;;;;;;5070814;28;20028;-73
2021/07/10 13:42:05;;;;;;;10.80;5.70;;;;;;;;;;5070763;28;20095;-73
2021/07/10 13:44:33;;;;;;;11.75;5.95;;;;;;;;;;5061984;28;20028;-76
2021/07/10 13:47:09;;;;;;;6.68;5.68;;;;;;;;;;5053974;28;20024;-76
2021/07/10 13:49:40;;;;;;;6.03;5.03;;;;;;;;;;5054125;28;20119;-76
2021/07/10 13:52:19;;;;;;;5.30;4.22;;;;;;;;;;5051759;28;20523;-76
2021/07/10 13:55:01;;;;;;;5.20;4.18;;;;;;;;;;5051017;28;20093;-76
2021/07/10 13:57:50;;;;;;;4.63;4.22;;;;;;;;;;5054715;28;20096;-76
2021/07/10 14:00:18;;;;;;;8.98;4.20;;;;;;;;;;5035891;28;20396;-77
2021/07/10 14:02:56;;;;;;;4.85;3.88;;;;;;;;;;5050188;28;20144;-76
2021/07/10 14:05:23;;;;;;;6.28;4.10;;;;;;;;;;5066750;28;20120;-76
2021/07/10 14:07:54;;;;;;;6.80;4.20;;;;;;;;;;5061999;28;20097;-76
2021/07/10 14:10:22;;;;;;;5.10;4.03;;;;;;;;;;5057655;28;20391;-77
2021/07/10 14:12:48;;;;;;;9.90;4.40;;;;;;;;;;5053329;28;20038;-76
2021/07/10 14:15:17;;;;;;;7.47;4.55;;;;;;;;;;5040239;28;20046;-76
2021/07/10 14:17:43;;;;;;;7.55;4.95;;;;;;;;;;5040078;28;20044;-76
2021/07/10 14:20:11;;;;;;;7.25;4.82;;;;;;;;;;5040889;28;20024;-76
2021/07/10 14:22:37;;;;;;;5.50;4.85;;;;;;;;;;5037976;28;20041;-76
2021/07/10 14:25:05;;;;;;;6.35;4.63;;;;;;;;;;5040057;28;20036;-75
2021/07/10 14:27:31;;;;;;;6.45;4.80;;;;;;;;;;5038416;28;20082;-74
2021/07/10 14:29:56;;;;;;;7.55;5.13;;;;;;;;;;5042986;28;20081;-76
2021/07/10 14:32:22;;;;;;;8.82;5.10;;;;;;;;;;5038250;28;20033;-76
2021/07/10 14:34:48;;;;;;;6.82;5.18;;;;;;;;;;5048779;28;20048;-77
2021/07/10 14:37:14;;;;;;;6.25;5.05;;;;;;;;;;5036330;28;20485;-77
2021/07/10 14:39:39;;;;;;;5.65;4.70;;;;;;;;;;5036698;28;20041;-77
2021/07/10 14:42:05;;;;;;;7.50;5.15;;;;;;;;;;5043436;28;20108;-76
2021/07/10 14:44:31;;;;;;;8.57;5.35;;;;;;;;;;5039416;28;20469;-76
2021/07/10 14:46:56;;;;;;;6.93;4.72;;;;;;;;;;5048692;28;20056;-77
2021/07/10 14:49:24;;;;;;;9.55;5.25;;;;;;;;;;5038967;28;20506;-78
2021/07/10 14:51:49;;;;;;;7.15;5.68;;;;;;;;;;5042568;28;20055;-77
2021/07/10 14:54:15;;;;;;;7.30;5.03;;;;;;;;;;5034257;28;20465;-77
2021/07/10 14:56:41;;;;;;;5.57;4.53;;;;;;;;;;5046283;28;20025;-77
2021/07/10 14:59:09;;;;;;;5.15;4.30;;;;;;;;;;5046659;28;20334;-78